sensor_id;sensor_type;location;lat;lon;timestamp;P1;durP1;ratioP1;P2;durP2;ratioP2
70150;SDS011;57517;43.562;19.540;2023-03-01T00:01:21;50.35;;;34.92;;
70150;SDS011;57517;43.562;19.540;2023-03-01T00:03:48;47.97;;;32.63;;
70150;SDS011;57517;43.562;19.540;2023-03-01T00:06:15;44.03;;;32.03;;
70150;SDS011;57517;43.562;19.540;2023-03-01T00:08:41;43.65;;;31.15;;
70150;SDS011;57517;43.562;19.540;2023-03-01T00:11:10;46.47;;;31.83;;
70150;SDS011;57517;43.562;19.540;2023-03-01T00:13:47;49.55;;;32.90;;
70150;SDS011;57517;43.562;19.540;2023-03-01T00:16:31;78.15;;;48.15;;
70150;SDS011;57517;43.562;19.540;2023-03-01T00:18:59;62.63;;;45.20;;
70150;SDS011;57517;43.562;19.540;2023-03-01T00:21:25;71.43;;;46.67;;
70150;SDS011;57517;43.562;19.540;2023-03-01T00:23:51;75.35;;;49.30;;
70150;SDS011;57517;43.562;19.540;2023-03-01T00:26:18;82.93;;;55.60;;
70150;SDS011;57517;43.562;19.540;2023-03-01T00:28:45;80.60;;;52.83;;
70150;SDS011;57517;43.562;19.540;2023-03-01T00:31:13;78.13;;;52.97;;
70150;SDS011;57517;43.562;19.540;2023-03-01T00:33:43;77.25;;;51.25;;
70150;SDS011;57517;43.562;19.540;2023-03-01T00:36:10;69.47;;;47.63;;
70150;SDS011;57517;43.562;19.540;2023-03-01T00:38:38;69.75;;;46.08;;
70150;SDS011;57517;43.562;19.540;2023-03-01T00:41:06;56.08;;;40.55;;
70150;SDS011;57517;43.562;19.540;2023-03-01T00:43:32;58.67;;;38.55;;
70150;SDS011;57517;43.562;19.540;2023-03-01T00:46:03;69.63;;;46.58;;
70150;SDS011;57517;43.562;19.540;2023-03-01T00:48:34;61.63;;;44.03;;
70150;SDS011;57517;43.562;19.540;2023-03-01T00:51:19;64.80;;;43.97;;
70150;SDS011;57517;43.562;19.540;2023-03-01T00:53:49;62.33;;;41.45;;
70150;SDS011;57517;43.562;19.540;2023-03-01T00:56:16;61.45;;;41.60;;
70150;SDS011;57517;43.562;19.540;2023-03-01T00:58:42;57.10;;;40.30;;
70150;SDS011;57517;43.562;19.540;2023-03-01T01:03:45;55.97;;;37.95;;
70150;SDS011;57517;43.562;19.540;2023-03-01T01:06:23;56.00;;;37.88;;
70150;SDS011;57517;43.562;19.540;2023-03-01T01:08:54;58.78;;;37.80;;
70150;SDS011;57517;43.562;19.540;2023-03-01T01:11:21;66.78;;;45.58;;
70150;SDS011;57517;43.562;19.540;2023-03-01T01:13:47;77.65;;;52.45;;
70150;SDS011;57517;43.562;19.540;2023-03-01T01:16:14;77.68;;;51.38;;
70150;SDS011;57517;43.562;19.540;2023-03-01T01:18:40;73.78;;;47.03;;
70150;SDS011;57517;43.562;19.540;2023-03-01T01:21:08;76.35;;;47.97;;
70150;SDS011;57517;43.562;19.540;2023-03-01T01:23:36;70.93;;;47.22;;
70150;SDS011;57517;43.562;19.540;2023-03-01T01:26:24;78.47;;;50.22;;
70150;SDS011;57517;43.562;19.540;2023-03-01T01:28:49;64.10;;;45.00;;
70150;SDS011;57517;43.562;19.540;2023-03-01T01:31:16;69.55;;;46.38;;
70150;SDS011;57517;43.562;19.540;2023-03-01T01:33:41;64.15;;;44.42;;
70150;SDS011;57517;43.562;19.540;2023-03-01T01:36:07;73.28;;;50.05;;
70150;SDS011;57517;43.562;19.540;2023-03-01T01:38:34;80.47;;;52.85;;
70150;SDS011;57517;43.562;19.540;2023-03-01T01:41:01;81.68;;;55.58;;
70150;SDS011;57517;43.562;19.540;2023-03-01T01:43:28;68.47;;;47.83;;
70150;SDS011;57517;43.562;19.540;2023-03-01T01:45:59;67.75;;;46.80;;
70150;SDS011;57517;43.562;19.540;2023-03-01T01:48:32;70.88;;;47.60;;
70150;SDS011;57517;43.562;19.540;2023-03-01T01:51:21;72.32;;;50.58;;
70150;SDS011;57517;43.562;19.540;2023-03-01T01:53:52;78.30;;;50.42;;
70150;SDS011;57517;43.562;19.540;2023-03-01T01:56:22;80.22;;;49.70;;
70150;SDS011;57517;43.562;19.540;2023-03-01T01:58:49;80.22;;;52.53;;
70150;SDS011;57517;43.562;19.540;2023-03-01T02:01:15;83.40;;;57.63;;
70150;SDS011;57517;43.562;19.540;2023-03-01T02:03:42;75.15;;;48.80;;
70150;SDS011;57517;43.562;19.540;2023-03-01T02:08:36;58.38;;;41.67;;
70150;SDS011;57517;43.562;19.540;2023-03-01T02:11:03;47.15;;;34.75;;
70150;SDS011;57517;43.562;19.540;2023-03-01T02:13:30;46.47;;;33.25;;
70150;SDS011;57517;43.562;19.540;2023-03-01T02:15:57;52.95;;;35.13;;
70150;SDS011;57517;43.562;19.540;2023-03-01T02:18:23;52.15;;;38.28;;
70150;SDS011;57517;43.562;19.540;2023-03-01T02:21:08;60.08;;;41.65;;
70150;SDS011;57517;43.562;19.540;2023-03-01T02:23:47;61.28;;;44.17;;
70150;SDS011;57517;43.562;19.540;2023-03-01T02:28:49;72.30;;;51.05;;
70150;SDS011;57517;43.562;19.540;2023-03-01T02:31:17;83.88;;;56.50;;
70150;SDS011;57517;43.562;19.540;2023-03-01T02:34:04;79.20;;;56.38;;
70150;SDS011;57517;43.562;19.540;2023-03-01T02:36:36;79.43;;;54.40;;
70150;SDS011;57517;43.562;19.540;2023-03-01T02:39:06;78.97;;;51.10;;
70150;SDS011;57517;43.562;19.540;2023-03-01T02:41:39;77.30;;;49.88;;
70150;SDS011;57517;43.562;19.540;2023-03-01T02:44:08;69.57;;;50.72;;
70150;SDS011;57517;43.562;19.540;2023-03-01T02:46:33;70.60;;;48.88;;
70150;SDS011;57517;43.562;19.540;2023-03-01T02:49:20;71.53;;;50.80;;
70150;SDS011;57517;43.562;19.540;2023-03-01T02:57:36;65.13;;;42.65;;
70150;SDS011;57517;43.562;19.540;2023-03-01T03:00:09;63.28;;;46.17;;
70150;SDS011;57517;43.562;19.540;2023-03-01T03:02:44;68.10;;;46.70;;
70150;SDS011;57517;43.562;19.540;2023-03-01T03:05:12;67.75;;;48.30;;
70150;SDS011;57517;43.562;19.540;2023-03-01T03:07:42;60.85;;;42.47;;
70150;SDS011;57517;43.562;19.540;2023-03-01T03:10:10;55.97;;;36.42;;
70150;SDS011;57517;43.562;19.540;2023-03-01T03:12:41;48.00;;;30.90;;
70150;SDS011;57517;43.562;19.540;2023-03-01T03:15:08;45.53;;;28.23;;
70150;SDS011;57517;43.562;19.540;2023-03-01T03:17:37;41.30;;;28.13;;
70150;SDS011;57517;43.562;19.540;2023-03-01T03:20:05;49.53;;;31.27;;
70150;SDS011;57517;43.562;19.540;2023-03-01T03:22:36;47.92;;;34.20;;
70150;SDS011;57517;43.562;19.540;2023-03-01T03:25:02;50.97;;;36.42;;
70150;SDS011;57517;43.562;19.540;2023-03-01T03:27:28;79.50;;;46.40;;
70150;SDS011;57517;43.562;19.540;2023-03-01T03:29:54;61.88;;;39.95;;
70150;SDS011;57517;43.562;19.540;2023-03-01T03:32:19;47.38;;;32.78;;
70150;SDS011;57517;43.562;19.540;2023-03-01T03:34:45;50.95;;;34.92;;
70150;SDS011;57517;43.562;19.540;2023-03-01T03:37:11;49.72;;;35.45;;
70150;SDS011;57517;43.562;19.540;2023-03-01T03:39:56;60.20;;;40.22;;
70150;SDS011;57517;43.562;19.540;2023-03-01T03:42:23;55.13;;;37.35;;
70150;SDS011;57517;43.562;19.540;2023-03-01T03:44:49;55.20;;;38.92;;
70150;SDS011;57517;43.562;19.540;2023-03-01T03:47:15;50.05;;;35.53;;
70150;SDS011;57517;43.562;19.540;2023-03-01T03:49:40;55.50;;;35.55;;
70150;SDS011;57517;43.562;19.540;2023-03-01T03:52:06;47.95;;;34.67;;
70150;SDS011;57517;43.562;19.540;2023-03-01T03:54:39;46.00;;;32.78;;
70150;SDS011;57517;43.562;19.540;2023-03-01T03:57:05;50.40;;;31.52;;
70150;SDS011;57517;43.562;19.540;2023-03-01T03:59:31;55.55;;;37.90;;
70150;SDS011;57517;43.562;19.540;2023-03-01T04:01:57;51.53;;;38.70;;
70150;SDS011;57517;43.562;19.540;2023-03-01T04:04:22;51.40;;;36.92;;
70150;SDS011;57517;43.562;19.540;2023-03-01T04:06:48;47.38;;;35.13;;
70150;SDS011;57517;43.562;19.540;2023-03-01T04:09:14;42.42;;;30.05;;
70150;SDS011;57517;43.562;19.540;2023-03-01T04:11:40;39.58;;;29.85;;
70150;SDS011;57517;43.562;19.540;2023-03-01T04:14:05;41.28;;;29.02;;
70150;SDS011;57517;43.562;19.540;2023-03-01T04:16:31;36.90;;;27.00;;
70150;SDS011;57517;43.562;19.540;2023-03-01T04:18:57;40.85;;;28.70;;
70150;SDS011;57517;43.562;19.540;2023-03-01T04:21:24;43.38;;;29.38;;
70150;SDS011;57517;43.562;19.540;2023-03-01T04:23:50;48.10;;;31.90;;
70150;SDS011;57517;43.562;19.540;2023-03-01T04:26:17;63.15;;;38.50;;
70150;SDS011;57517;43.562;19.540;2023-03-01T04:28:44;49.42;;;34.38;;
70150;SDS011;57517;43.562;19.540;2023-03-01T04:31:14;47.97;;;35.20;;
70150;SDS011;57517;43.562;19.540;2023-03-01T04:33:43;45.10;;;31.30;;
70150;SDS011;57517;43.562;19.540;2023-03-01T04:36:11;56.40;;;36.28;;
70150;SDS011;57517;43.562;19.540;2023-03-01T04:38:39;51.58;;;34.03;;
70150;SDS011;57517;43.562;19.540;2023-03-01T04:41:06;51.97;;;33.45;;
70150;SDS011;57517;43.562;19.540;2023-03-01T04:43:33;47.53;;;32.30;;
70150;SDS011;57517;43.562;19.540;2023-03-01T04:46:08;47.05;;;31.98;;
70150;SDS011;57517;43.562;19.540;2023-03-01T04:48:37;43.60;;;30.27;;
70150;SDS011;57517;43.562;19.540;2023-03-01T04:51:04;42.40;;;28.40;;
70150;SDS011;57517;43.562;19.540;2023-03-01T04:53:31;40.25;;;28.27;;
70150;SDS011;57517;43.562;19.540;2023-03-01T04:55:57;37.80;;;27.88;;
70150;SDS011;57517;43.562;19.540;2023-03-01T04:58:24;38.45;;;26.65;;
70150;SDS011;57517;43.562;19.540;2023-03-01T05:00:51;35.75;;;26.63;;
70150;SDS011;57517;43.562;19.540;2023-03-01T05:03:18;45.70;;;32.88;;
70150;SDS011;57517;43.562;19.540;2023-03-01T05:05:45;39.95;;;28.15;;
70150;SDS011;57517;43.562;19.540;2023-03-01T05:08:13;43.67;;;28.77;;
70150;SDS011;57517;43.562;19.540;2023-03-01T05:10:45;41.67;;;28.17;;
70150;SDS011;57517;43.562;19.540;2023-03-01T05:13:13;38.20;;;24.92;;
70150;SDS011;57517;43.562;19.540;2023-03-01T05:15:45;35.17;;;25.30;;
70150;SDS011;57517;43.562;19.540;2023-03-01T05:18:19;34.03;;;24.20;;
70150;SDS011;57517;43.562;19.540;2023-03-01T05:20:44;37.67;;;26.90;;
70150;SDS011;57517;43.562;19.540;2023-03-01T05:23:11;38.55;;;27.02;;
70150;SDS011;57517;43.562;19.540;2023-03-01T05:25:36;40.47;;;27.60;;
70150;SDS011;57517;43.562;19.540;2023-03-01T05:28:05;53.40;;;36.50;;
70150;SDS011;57517;43.562;19.540;2023-03-01T05:30:35;44.95;;;30.13;;
70150;SDS011;57517;43.562;19.540;2023-03-01T05:33:01;35.42;;;26.23;;
70150;SDS011;57517;43.562;19.540;2023-03-01T05:35:27;37.92;;;25.33;;
70150;SDS011;57517;43.562;19.540;2023-03-01T05:37:54;40.17;;;25.20;;
70150;SDS011;57517;43.562;19.540;2023-03-01T05:40:21;34.15;;;23.27;;
70150;SDS011;57517;43.562;19.540;2023-03-01T05:42:50;54.38;;;38.22;;
70150;SDS011;57517;43.562;19.540;2023-03-01T05:45:19;56.80;;;41.10;;
70150;SDS011;57517;43.562;19.540;2023-03-01T05:47:47;58.05;;;41.53;;
70150;SDS011;57517;43.562;19.540;2023-03-01T05:50:14;50.22;;;38.13;;
70150;SDS011;57517;43.562;19.540;2023-03-01T05:52:51;62.50;;;43.95;;
70150;SDS011;57517;43.562;19.540;2023-03-01T05:55:23;74.45;;;45.00;;
70150;SDS011;57517;43.562;19.540;2023-03-01T05:57:49;60.47;;;41.13;;
70150;SDS011;57517;43.562;19.540;2023-03-01T06:00:16;58.22;;;38.55;;
70150;SDS011;57517;43.562;19.540;2023-03-01T06:02:43;54.08;;;37.45;;
70150;SDS011;57517;43.562;19.540;2023-03-01T06:05:09;51.55;;;34.85;;
70150;SDS011;57517;43.562;19.540;2023-03-01T06:07:36;73.80;;;48.72;;
70150;SDS011;57517;43.562;19.540;2023-03-01T06:10:02;60.33;;;41.63;;
70150;SDS011;57517;43.562;19.540;2023-03-01T06:12:32;58.45;;;40.60;;
70150;SDS011;57517;43.562;19.540;2023-03-01T06:15:00;58.97;;;39.60;;
70150;SDS011;57517;43.562;19.540;2023-03-01T06:17:28;49.95;;;36.30;;
70150;SDS011;57517;43.562;19.540;2023-03-01T06:19:55;49.50;;;35.20;;
70150;SDS011;57517;43.562;19.540;2023-03-01T06:22:21;54.08;;;36.88;;
70150;SDS011;57517;43.562;19.540;2023-03-01T06:24:47;58.63;;;38.42;;
70150;SDS011;57517;43.562;19.540;2023-03-01T06:27:13;51.55;;;36.00;;
70150;SDS011;57517;43.562;19.540;2023-03-01T06:29:38;60.08;;;40.72;;
70150;SDS011;57517;43.562;19.540;2023-03-01T06:32:04;54.90;;;39.88;;
70150;SDS011;57517;43.562;19.540;2023-03-01T06:34:30;54.53;;;40.95;;
70150;SDS011;57517;43.562;19.540;2023-03-01T06:36:57;69.47;;;47.53;;
70150;SDS011;57517;43.562;19.540;2023-03-01T06:39:22;65.38;;;45.78;;
70150;SDS011;57517;43.562;19.540;2023-03-01T06:41:48;61.40;;;43.08;;
70150;SDS011;57517;43.562;19.540;2023-03-01T06:44:14;60.92;;;43.38;;
70150;SDS011;57517;43.562;19.540;2023-03-01T06:46:39;57.22;;;41.72;;
70150;SDS011;57517;43.562;19.540;2023-03-01T06:49:05;59.22;;;42.92;;
70150;SDS011;57517;43.562;19.540;2023-03-01T06:51:34;63.35;;;44.70;;
70150;SDS011;57517;43.562;19.540;2023-03-01T06:54:02;62.38;;;47.92;;
70150;SDS011;57517;43.562;19.540;2023-03-01T06:56:31;75.88;;;59.92;;
70150;SDS011;57517;43.562;19.540;2023-03-01T06:58:57;79.13;;;61.85;;
70150;SDS011;57517;43.562;19.540;2023-03-01T07:01:23;179.18;;;117.15;;
70150;SDS011;57517;43.562;19.540;2023-03-01T07:03:48;288.65;;;192.02;;
70150;SDS011;57517;43.562;19.540;2023-03-01T07:06:14;192.65;;;125.90;;
70150;SDS011;57517;43.562;19.540;2023-03-01T07:08:40;130.10;;;88.07;;
70150;SDS011;57517;43.562;19.540;2023-03-01T07:11:06;87.85;;;59.70;;
70150;SDS011;57517;43.562;19.540;2023-03-01T07:13:32;65.85;;;46.15;;
70150;SDS011;57517;43.562;19.540;2023-03-01T07:15:58;56.55;;;39.75;;
70150;SDS011;57517;43.562;19.540;2023-03-01T07:18:23;51.85;;;39.65;;
70150;SDS011;57517;43.562;19.540;2023-03-01T07:20:49;48.08;;;37.75;;
70150;SDS011;57517;43.562;19.540;2023-03-01T07:23:15;46.30;;;33.17;;
70150;SDS011;57517;43.562;19.540;2023-03-01T07:25:41;38.17;;;30.10;;
70150;SDS011;57517;43.562;19.540;2023-03-01T07:28:06;43.80;;;30.90;;
70150;SDS011;57517;43.562;19.540;2023-03-01T07:30:32;42.15;;;32.05;;
70150;SDS011;57517;43.562;19.540;2023-03-01T07:32:58;42.88;;;31.52;;
70150;SDS011;57517;43.562;19.540;2023-03-01T07:35:25;42.28;;;30.48;;
70150;SDS011;57517;43.562;19.540;2023-03-01T07:37:51;70.28;;;52.45;;
70150;SDS011;57517;43.562;19.540;2023-03-01T07:40:18;65.13;;;51.95;;
70150;SDS011;57517;43.562;19.540;2023-03-01T07:42:44;66.82;;;51.13;;
70150;SDS011;57517;43.562;19.540;2023-03-01T07:45:10;66.90;;;51.63;;
70150;SDS011;57517;43.562;19.540;2023-03-01T07:47:38;68.22;;;50.53;;
70150;SDS011;57517;43.562;19.540;2023-03-01T07:50:04;72.20;;;55.97;;
70150;SDS011;57517;43.562;19.540;2023-03-01T07:52:30;76.90;;;55.80;;
70150;SDS011;57517;43.562;19.540;2023-03-01T07:54:56;70.85;;;55.08;;
70150;SDS011;57517;43.562;19.540;2023-03-01T07:57:22;72.80;;;51.35;;
70150;SDS011;57517;43.562;19.540;2023-03-01T07:59:48;54.60;;;42.90;;
70150;SDS011;57517;43.562;19.540;2023-03-01T08:02:14;49.80;;;38.45;;
70150;SDS011;57517;43.562;19.540;2023-03-01T08:04:40;52.17;;;41.90;;
70150;SDS011;57517;43.562;19.540;2023-03-01T08:07:07;48.38;;;38.58;;
70150;SDS011;57517;43.562;19.540;2023-03-01T08:09:36;55.30;;;37.75;;
70150;SDS011;57517;43.562;19.540;2023-03-01T08:12:02;49.03;;;37.20;;
70150;SDS011;57517;43.562;19.540;2023-03-01T08:14:29;45.38;;;35.35;;
70150;SDS011;57517;43.562;19.540;2023-03-01T08:16:56;39.92;;;31.35;;
70150;SDS011;57517;43.562;19.540;2023-03-01T08:19:21;38.45;;;27.58;;
70150;SDS011;57517;43.562;19.540;2023-03-01T08:21:47;42.92;;;34.50;;
70150;SDS011;57517;43.562;19.540;2023-03-01T08:24:13;41.05;;;30.13;;
70150;SDS011;57517;43.562;19.540;2023-03-01T08:26:38;34.90;;;24.80;;
70150;SDS011;57517;43.562;19.540;2023-03-01T08:29:04;32.80;;;23.90;;
70150;SDS011;57517;43.562;19.540;2023-03-01T08:31:34;34.85;;;25.95;;
70150;SDS011;57517;43.562;19.540;2023-03-01T08:34:03;30.45;;;23.35;;
70150;SDS011;57517;43.562;19.540;2023-03-01T08:36:32;58.17;;;43.78;;
70150;SDS011;57517;43.562;19.540;2023-03-01T08:39:00;26.67;;;18.85;;
70150;SDS011;57517;43.562;19.540;2023-03-01T08:41:26;38.97;;;26.02;;
70150;SDS011;57517;43.562;19.540;2023-03-01T08:43:52;25.45;;;20.60;;
70150;SDS011;57517;43.562;19.540;2023-03-01T08:46:23;27.83;;;19.73;;
70150;SDS011;57517;43.562;19.540;2023-03-01T08:48:57;30.15;;;21.48;;
70150;SDS011;57517;43.562;19.540;2023-03-01T08:51:23;26.00;;;21.25;;
70150;SDS011;57517;43.562;19.540;2023-03-01T08:53:50;24.67;;;18.67;;
70150;SDS011;57517;43.562;19.540;2023-03-01T08:56:16;22.52;;;14.05;;
70150;SDS011;57517;43.562;19.540;2023-03-01T08:58:47;41.40;;;29.70;;
70150;SDS011;57517;43.562;19.540;2023-03-01T09:01:17;31.25;;;22.75;;
70150;SDS011;57517;43.562;19.540;2023-03-01T09:03:45;31.83;;;24.95;;
70150;SDS011;57517;43.562;19.540;2023-03-01T09:06:11;28.58;;;23.63;;
70150;SDS011;57517;43.562;19.540;2023-03-01T09:08:38;22.75;;;17.55;;
70150;SDS011;57517;43.562;19.540;2023-03-01T09:11:06;20.40;;;16.85;;
70150;SDS011;57517;43.562;19.540;2023-03-01T09:13:33;26.65;;;19.88;;
70150;SDS011;57517;43.562;19.540;2023-03-01T09:16:00;26.80;;;18.75;;
70150;SDS011;57517;43.562;19.540;2023-03-01T09:18:28;32.33;;;25.40;;
70150;SDS011;57517;43.562;19.540;2023-03-01T09:21:00;40.45;;;31.00;;
70150;SDS011;57517;43.562;19.540;2023-03-01T09:23:37;44.03;;;35.05;;
70150;SDS011;57517;43.562;19.540;2023-03-01T09:26:06;23.52;;;18.13;;
70150;SDS011;57517;43.562;19.540;2023-03-01T09:28:34;21.17;;;17.33;;
70150;SDS011;57517;43.562;19.540;2023-03-01T09:31:02;21.58;;;17.20;;
70150;SDS011;57517;43.562;19.540;2023-03-01T09:33:29;19.30;;;14.68;;
70150;SDS011;57517;43.562;19.540;2023-03-01T09:35:57;23.63;;;16.98;;
70150;SDS011;57517;43.562;19.540;2023-03-01T09:38:24;19.55;;;16.63;;
70150;SDS011;57517;43.562;19.540;2023-03-01T09:40:50;19.98;;;15.98;;
70150;SDS011;57517;43.562;19.540;2023-03-01T09:46:08;18.48;;;15.02;;
70150;SDS011;57517;43.562;19.540;2023-03-01T09:48:43;28.70;;;23.40;;
70150;SDS011;57517;43.562;19.540;2023-03-01T09:51:17;24.08;;;18.60;;
70150;SDS011;57517;43.562;19.540;2023-03-01T09:53:47;31.52;;;24.42;;
70150;SDS011;57517;43.562;19.540;2023-03-01T09:58:54;18.30;;;14.05;;
70150;SDS011;57517;43.562;19.540;2023-03-01T10:07:58;16.92;;;13.73;;
70150;SDS011;57517;43.562;19.540;2023-03-01T10:09:57;14.05;;;9.57;;
70150;SDS011;57517;43.562;19.540;2023-03-01T10:12:27;14.45;;;11.65;;
70150;SDS011;57517;43.562;19.540;2023-03-01T10:17:27;12.85;;;10.57;;
70150;SDS011;57517;43.562;19.540;2023-03-01T10:23:08;14.38;;;10.35;;
70150;SDS011;57517;43.562;19.540;2023-03-01T10:28:06;12.48;;;10.48;;
70150;SDS011;57517;43.562;19.540;2023-03-01T10:30:42;24.77;;;19.60;;
70150;SDS011;57517;43.562;19.540;2023-03-01T10:33:31;19.70;;;16.63;;
70150;SDS011;57517;43.562;19.540;2023-03-01T10:35:57;13.73;;;12.02;;
70150;SDS011;57517;43.562;19.540;2023-03-01T10:38:23;20.63;;;15.02;;
70150;SDS011;57517;43.562;19.540;2023-03-01T10:40:59;19.70;;;14.50;;
70150;SDS011;57517;43.562;19.540;2023-03-01T10:43:45;34.42;;;28.45;;
70150;SDS011;57517;43.562;19.540;2023-03-01T10:51:41;18.25;;;14.35;;
70150;SDS011;57517;43.562;19.540;2023-03-01T10:56:52;14.13;;;11.73;;
70150;SDS011;57517;43.562;19.540;2023-03-01T10:59:25;15.50;;;11.38;;
70150;SDS011;57517;43.562;19.540;2023-03-01T11:04:59;16.08;;;11.27;;
70150;SDS011;57517;43.562;19.540;2023-03-01T11:07:35;15.27;;;13.35;;
70150;SDS011;57517;43.562;19.540;2023-03-01T11:10:43;13.57;;;10.98;;
70150;SDS011;57517;43.562;19.540;2023-03-01T11:13:13;24.05;;;18.50;;
70150;SDS011;57517;43.562;19.540;2023-03-01T11:15:41;19.70;;;13.82;;
70150;SDS011;57517;43.562;19.540;2023-03-01T11:18:20;17.95;;;13.30;;
70150;SDS011;57517;43.562;19.540;2023-03-01T11:20:48;21.40;;;15.30;;
70150;SDS011;57517;43.562;19.540;2023-03-01T11:23:17;14.75;;;10.63;;
70150;SDS011;57517;43.562;19.540;2023-03-01T11:25:49;12.90;;;10.57;;
70150;SDS011;57517;43.562;19.540;2023-03-01T11:28:20;20.67;;;15.20;;
70150;SDS011;57517;43.562;19.540;2023-03-01T11:30:55;16.40;;;13.52;;
70150;SDS011;57517;43.562;19.540;2023-03-01T11:36:00;22.02;;;18.05;;
70150;SDS011;57517;43.562;19.540;2023-03-01T11:38:30;19.40;;;14.55;;
70150;SDS011;57517;43.562;19.540;2023-03-01T11:57:25;17.42;;;13.98;;
70150;SDS011;57517;43.562;19.540;2023-03-01T12:00:37;13.75;;;10.10;;
70150;SDS011;57517;43.562;19.540;2023-03-01T12:19:49;27.50;;;21.33;;
70150;SDS011;57517;43.562;19.540;2023-03-01T12:22:39;22.67;;;18.42;;
70150;SDS011;57517;43.562;19.540;2023-03-01T12:25:33;31.63;;;23.40;;
70150;SDS011;57517;43.562;19.540;2023-03-01T12:28:43;23.10;;;17.52;;
70150;SDS011;57517;43.562;19.540;2023-03-01T12:31:25;23.92;;;17.38;;
70150;SDS011;57517;43.562;19.540;2023-03-01T12:34:09;17.88;;;14.02;;
70150;SDS011;57517;43.562;19.540;2023-03-01T12:37:08;16.08;;;12.57;;
70150;SDS011;57517;43.562;19.540;2023-03-01T12:50:00;24.33;;;20.02;;
70150;SDS011;57517;43.562;19.540;2023-03-01T12:55:02;14.02;;;12.55;;
70150;SDS011;57517;43.562;19.540;2023-03-01T12:57:43;48.58;;;36.53;;
70150;SDS011;57517;43.562;19.540;2023-03-01T13:06:24;32.55;;;21.77;;
70150;SDS011;57517;43.562;19.540;2023-03-01T13:09:04;19.70;;;15.98;;
70150;SDS011;57517;43.562;19.540;2023-03-01T13:11:31;18.85;;;13.27;;
70150;SDS011;57517;43.562;19.540;2023-03-01T13:14:45;27.58;;;19.27;;
70150;SDS011;57517;43.562;19.540;2023-03-01T13:16:45;20.38;;;14.65;;
70150;SDS011;57517;43.562;19.540;2023-03-01T13:19:20;20.08;;;15.85;;
70150;SDS011;57517;43.562;19.540;2023-03-01T13:21:51;21.17;;;15.93;;
70150;SDS011;57517;43.562;19.540;2023-03-01T13:34:53;19.35;;;15.25;;
70150;SDS011;57517;43.562;19.540;2023-03-01T13:37:22;24.65;;;17.15;;
70150;SDS011;57517;43.562;19.540;2023-03-01T13:39:51;20.05;;;14.50;;
70150;SDS011;57517;43.562;19.540;2023-03-01T13:45:17;39.13;;;28.75;;
70150;SDS011;57517;43.562;19.540;2023-03-01T13:48:05;34.40;;;26.77;;
70150;SDS011;57517;43.562;19.540;2023-03-01T13:50:36;31.77;;;25.55;;
70150;SDS011;57517;43.562;19.540;2023-03-01T13:53:11;32.97;;;26.67;;
70150;SDS011;57517;43.562;19.540;2023-03-01T13:55:43;38.28;;;28.75;;
70150;SDS011;57517;43.562;19.540;2023-03-01T13:58:30;36.67;;;28.42;;
70150;SDS011;57517;43.562;19.540;2023-03-01T14:00:58;31.80;;;27.75;;
70150;SDS011;57517;43.562;19.540;2023-03-01T14:03:25;26.85;;;21.17;;
70150;SDS011;57517;43.562;19.540;2023-03-01T14:06:02;29.08;;;22.75;;
70150;SDS011;57517;43.562;19.540;2023-03-01T14:08:40;28.08;;;24.05;;
70150;SDS011;57517;43.562;19.540;2023-03-01T14:21:28;32.95;;;25.33;;
70150;SDS011;57517;43.562;19.540;2023-03-01T14:23:55;19.95;;;14.55;;
70150;SDS011;57517;43.562;19.540;2023-03-01T14:26:22;28.90;;;23.25;;
70150;SDS011;57517;43.562;19.540;2023-03-01T14:28:49;40.03;;;32.67;;
70150;SDS011;57517;43.562;19.540;2023-03-01T14:33:59;28.38;;;21.88;;
70150;SDS011;57517;43.562;19.540;2023-03-01T14:36:29;61.90;;;46.55;;
70150;SDS011;57517;43.562;19.540;2023-03-01T14:38:56;72.28;;;52.38;;
70150;SDS011;57517;43.562;19.540;2023-03-01T14:41:30;35.20;;;25.38;;
70150;SDS011;57517;43.562;19.540;2023-03-01T14:44:02;38.97;;;28.27;;
70150;SDS011;57517;43.562;19.540;2023-03-01T14:49:03;26.23;;;19.42;;
70150;SDS011;57517;43.562;19.540;2023-03-01T14:51:34;17.75;;;14.27;;
70150;SDS011;57517;43.562;19.540;2023-03-01T14:54:11;19.73;;;13.65;;
70150;SDS011;57517;43.562;19.540;2023-03-01T14:56:51;26.30;;;18.75;;
70150;SDS011;57517;43.562;19.540;2023-03-01T14:59:21;33.67;;;25.58;;
70150;SDS011;57517;43.562;19.540;2023-03-01T15:01:48;54.78;;;43.13;;
70150;SDS011;57517;43.562;19.540;2023-03-01T15:04:16;43.58;;;34.45;;
70150;SDS011;57517;43.562;19.540;2023-03-01T15:06:43;38.60;;;27.05;;
70150;SDS011;57517;43.562;19.540;2023-03-01T15:09:14;65.35;;;44.53;;
70150;SDS011;57517;43.562;19.540;2023-03-01T15:11:43;111.97;;;76.00;;
70150;SDS011;57517;43.562;19.540;2023-03-01T15:14:25;91.00;;;63.08;;
70150;SDS011;57517;43.562;19.540;2023-03-01T15:17:05;38.40;;;29.90;;
70150;SDS011;57517;43.562;19.540;2023-03-01T15:19:41;36.03;;;28.33;;
70150;SDS011;57517;43.562;19.540;2023-03-01T15:22:12;24.63;;;18.70;;
70150;SDS011;57517;43.562;19.540;2023-03-01T15:24:40;21.05;;;17.08;;
70150;SDS011;57517;43.562;19.540;2023-03-01T15:27:14;19.08;;;14.50;;
70150;SDS011;57517;43.562;19.540;2023-03-01T15:29:46;23.63;;;18.45;;
70150;SDS011;57517;43.562;19.540;2023-03-01T15:32:28;55.35;;;39.22;;
70150;SDS011;57517;43.562;19.540;2023-03-01T15:34:55;102.53;;;73.88;;
70150;SDS011;57517;43.562;19.540;2023-03-01T15:43:03;77.95;;;54.00;;
70150;SDS011;57517;43.562;19.540;2023-03-01T15:45:30;54.70;;;40.40;;
70150;SDS011;57517;43.562;19.540;2023-03-01T15:48:04;50.22;;;35.33;;
70150;SDS011;57517;43.562;19.540;2023-03-01T15:50:39;42.50;;;32.45;;
70150;SDS011;57517;43.562;19.540;2023-03-01T15:53:10;38.00;;;28.85;;
70150;SDS011;57517;43.562;19.540;2023-03-01T15:55:39;38.53;;;29.00;;
70150;SDS011;57517;43.562;19.540;2023-03-01T15:58:15;33.65;;;26.23;;
70150;SDS011;57517;43.562;19.540;2023-03-01T16:00:46;26.30;;;20.15;;
70150;SDS011;57517;43.562;19.540;2023-03-01T16:03:15;26.23;;;18.52;;
70150;SDS011;57517;43.562;19.540;2023-03-01T16:05:46;32.53;;;22.13;;
70150;SDS011;57517;43.562;19.540;2023-03-01T16:08:13;22.52;;;18.00;;
70150;SDS011;57517;43.562;19.540;2023-03-01T16:10:40;25.08;;;18.70;;
70150;SDS011;57517;43.562;19.540;2023-03-01T16:13:08;20.02;;;14.55;;
70150;SDS011;57517;43.562;19.540;2023-03-01T16:15:37;24.88;;;18.85;;
70150;SDS011;57517;43.562;19.540;2023-03-01T16:18:04;22.17;;;15.65;;
70150;SDS011;57517;43.562;19.540;2023-03-01T16:20:31;33.10;;;23.60;;
70150;SDS011;57517;43.562;19.540;2023-03-01T16:23:00;58.33;;;43.78;;
70150;SDS011;57517;43.562;19.540;2023-03-01T16:25:28;64.30;;;48.17;;
70150;SDS011;57517;43.562;19.540;2023-03-01T16:27:54;62.30;;;47.05;;
70150;SDS011;57517;43.562;19.540;2023-03-01T16:30:23;55.53;;;43.53;;
70150;SDS011;57517;43.562;19.540;2023-03-01T16:32:49;77.20;;;58.83;;
70150;SDS011;57517;43.562;19.540;2023-03-01T16:35:16;59.40;;;45.83;;
70150;SDS011;57517;43.562;19.540;2023-03-01T16:37:43;43.60;;;34.30;;